Nevsehir, Turkey
Current Conditions -  °F | °C
As of 12:50 AM on Saturday 22 Nov 2014 (Local Time) from LTAZ Reporting Station
Light Rain Light Rain  
Wind Chill: 31°   Ceiling: 3000
Heat Index: 39°   Visibility: 6mi
Dew Point: 37°   Wind: 14mph
Humidity: 93%   Direction: 280°W
Pressure: 29.85"   Gusts: NA
Location:  38.63°N, 34.72°E
Report Text: LTAZ 212150Z 28012KT 9000 -RA FEW019 BKN030 OVC080 04/03 Q1011
Loading
Personal Weather Stations






























Interactive Weather Map New forecast layout! Learn more

10-Day Weather Forecast

Advertisements
Track Severe Weather on mobile